Enderlin, North Dakota
Current Conditions -  °F | °C
As of 6:35 AM on Sunday 23 Nov 2014 (Local Time) from KGWR Reporting Station
Overcast Overcast  
Wind Chill: 28°   Ceiling: 4400
Heat Index: 37°   Visibility: 10mi
Dew Point: 37°   Wind: 16mph
Humidity: 100%   Direction: 290°WNW
Pressure: 29.43"   Gusts: 21mph
Location:  46.62°N, 97.6°W
Report Text: KGWR 231235Z AUTO 29014G18KT 10SM FEW029 SCT034 OVC044 03/03 A2943 RMK A01 P000
Loading
Personal Weather Stations






























Interactive Weather Map New forecast layout! Learn more

10-Day Weather Forecast

Advertisements
Track Severe Weather on mobile